sensor_id;sensor_type;location;lat;lon;timestamp;P1;durP1;ratioP1;P2;durP2;ratioP2
25391;SDS011;13329;48.402;11.718;2023-03-20T00:00:40;8.43;;;4.50;;
25391;SDS011;13329;48.402;11.718;2023-03-20T00:03:07;7.50;;;4.38;;
25391;SDS011;13329;48.402;11.718;2023-03-20T00:05:33;11.80;;;4.30;;
25391;SDS011;13329;48.402;11.718;2023-03-20T00:07:58;7.17;;;3.90;;
25391;SDS011;13329;48.402;11.718;2023-03-20T00:10:37;6.07;;;4.00;;
25391;SDS011;13329;48.402;11.718;2023-03-20T00:13:03;4.68;;;2.60;;
25391;SDS011;13329;48.402;11.718;2023-03-20T00:15:38;8.13;;;4.15;;
25391;SDS011;13329;48.402;11.718;2023-03-20T00:18:10;9.43;;;4.03;;
25391;SDS011;13329;48.402;11.718;2023-03-20T00:20:37;8.27;;;3.63;;
25391;SDS011;13329;48.402;11.718;2023-03-20T00:23:02;9.00;;;3.78;;
25391;SDS011;13329;48.402;11.718;2023-03-20T00:25:28;5.68;;;3.58;;
25391;SDS011;13329;48.402;11.718;2023-03-20T00:27:54;8.73;;;4.65;;
25391;SDS011;13329;48.402;11.718;2023-03-20T00:30:21;8.02;;;4.38;;
25391;SDS011;13329;48.402;11.718;2023-03-20T00:32:47;5.68;;;3.78;;
25391;SDS011;13329;48.402;11.718;2023-03-20T00:35:16;5.40;;;3.28;;
25391;SDS011;13329;48.402;11.718;2023-03-20T00:37:42;5.88;;;4.03;;
25391;SDS011;13329;48.402;11.718;2023-03-20T00:40:07;7.90;;;4.15;;
25391;SDS011;13329;48.402;11.718;2023-03-20T00:42:33;6.32;;;4.28;;
25391;SDS011;13329;48.402;11.718;2023-03-20T00:44:58;7.43;;;4.25;;
25391;SDS011;13329;48.402;11.718;2023-03-20T00:47:24;8.68;;;3.85;;
25391;SDS011;13329;48.402;11.718;2023-03-20T00:49:51;7.00;;;4.20;;
25391;SDS011;13329;48.402;11.718;2023-03-20T00:52:18;5.07;;;3.58;;
25391;SDS011;13329;48.402;11.718;2023-03-20T00:54:44;7.05;;;4.43;;
25391;SDS011;13329;48.402;11.718;2023-03-20T00:59:38;9.85;;;4.70;;
25391;SDS011;13329;48.402;11.718;2023-03-20T01:02:04;7.43;;;4.43;;
25391;SDS011;13329;48.402;11.718;2023-03-20T01:04:37;7.95;;;4.60;;
25391;SDS011;13329;48.402;11.718;2023-03-20T01:07:03;8.98;;;4.88;;
25391;SDS011;13329;48.402;11.718;2023-03-20T01:09:29;11.35;;;4.47;;
25391;SDS011;13329;48.402;11.718;2023-03-20T01:11:54;8.13;;;4.87;;
25391;SDS011;13329;48.402;11.718;2023-03-20T01:14:19;7.00;;;4.22;;
25391;SDS011;13329;48.402;11.718;2023-03-20T01:16:44;6.70;;;4.53;;
25391;SDS011;13329;48.402;11.718;2023-03-20T01:19:11;9.17;;;4.80;;
25391;SDS011;13329;48.402;11.718;2023-03-20T01:21:36;8.88;;;4.53;;
25391;SDS011;13329;48.402;11.718;2023-03-20T01:24:02;10.65;;;5.15;;
25391;SDS011;13329;48.402;11.718;2023-03-20T01:26:37;6.83;;;4.73;;
25391;SDS011;13329;48.402;11.718;2023-03-20T01:29:03;8.25;;;4.85;;
25391;SDS011;13329;48.402;11.718;2023-03-20T01:31:28;8.52;;;4.70;;
25391;SDS011;13329;48.402;11.718;2023-03-20T01:33:54;11.50;;;5.22;;
25391;SDS011;13329;48.402;11.718;2023-03-20T01:36:20;7.70;;;4.70;;
25391;SDS011;13329;48.402;11.718;2023-03-20T01:38:48;7.47;;;4.72;;
25391;SDS011;13329;48.402;11.718;2023-03-20T01:41:15;8.38;;;5.03;;
25391;SDS011;13329;48.402;11.718;2023-03-20T01:43:42;9.00;;;4.65;;
25391;SDS011;13329;48.402;11.718;2023-03-20T01:53:41;7.88;;;4.70;;
25391;SDS011;13329;48.402;11.718;2023-03-20T01:56:07;10.45;;;4.90;;
25391;SDS011;13329;48.402;11.718;2023-03-20T01:58:34;9.70;;;4.95;;
25391;SDS011;13329;48.402;11.718;2023-03-20T02:01:02;10.18;;;4.60;;
25391;SDS011;13329;48.402;11.718;2023-03-20T02:03:27;8.57;;;4.38;;
25391;SDS011;13329;48.402;11.718;2023-03-20T02:05:53;8.23;;;4.83;;
25391;SDS011;13329;48.402;11.718;2023-03-20T02:10:47;7.72;;;4.43;;
25391;SDS011;13329;48.402;11.718;2023-03-20T02:13:13;7.70;;;4.68;;
25391;SDS011;13329;48.402;11.718;2023-03-20T02:15:58;8.10;;;4.28;;
25391;SDS011;13329;48.402;11.718;2023-03-20T02:18:23;7.45;;;4.35;;
25391;SDS011;13329;48.402;11.718;2023-03-20T02:20:55;7.88;;;4.55;;
25391;SDS011;13329;48.402;11.718;2023-03-20T02:26:11;6.07;;;4.17;;
25391;SDS011;13329;48.402;11.718;2023-03-20T02:28:47;7.85;;;4.57;;
25391;SDS011;13329;48.402;11.718;2023-03-20T02:34:10;8.68;;;4.70;;
25391;SDS011;13329;48.402;11.718;2023-03-20T02:42:09;10.27;;;4.13;;
25391;SDS011;13329;48.402;11.718;2023-03-20T02:45:21;7.43;;;4.18;;
25391;SDS011;13329;48.402;11.718;2023-03-20T02:50:18;7.72;;;4.38;;
25391;SDS011;13329;48.402;11.718;2023-03-20T02:58:10;7.47;;;4.25;;
25391;SDS011;13329;48.402;11.718;2023-03-20T03:00:39;10.23;;;4.47;;
25391;SDS011;13329;48.402;11.718;2023-03-20T03:03:14;7.30;;;3.97;;
25391;SDS011;13329;48.402;11.718;2023-03-20T03:05:47;9.55;;;4.10;;
25391;SDS011;13329;48.402;11.718;2023-03-20T03:08:13;8.13;;;4.78;;
25391;SDS011;13329;48.402;11.718;2023-03-20T03:10:42;7.47;;;4.07;;
25391;SDS011;13329;48.402;11.718;2023-03-20T03:13:10;5.60;;;3.78;;
25391;SDS011;13329;48.402;11.718;2023-03-20T03:15:37;6.50;;;3.53;;
25391;SDS011;13329;48.402;11.718;2023-03-20T03:18:04;6.03;;;3.33;;
25391;SDS011;13329;48.402;11.718;2023-03-20T03:20:31;5.82;;;3.60;;
25391;SDS011;13329;48.402;11.718;2023-03-20T03:22:57;6.18;;;3.22;;
25391;SDS011;13329;48.402;11.718;2023-03-20T03:25:23;5.70;;;3.50;;
25391;SDS011;13329;48.402;11.718;2023-03-20T03:27:53;5.65;;;3.40;;
25391;SDS011;13329;48.402;11.718;2023-03-20T03:30:23;6.13;;;3.63;;
25391;SDS011;13329;48.402;11.718;2023-03-20T03:32:52;6.90;;;3.50;;
25391;SDS011;13329;48.402;11.718;2023-03-20T03:35:20;4.90;;;3.17;;
25391;SDS011;13329;48.402;11.718;2023-03-20T03:37:57;6.57;;;3.47;;
25391;SDS011;13329;48.402;11.718;2023-03-20T03:40:34;4.90;;;2.95;;
25391;SDS011;13329;48.402;11.718;2023-03-20T03:43:09;5.07;;;3.22;;
25391;SDS011;13329;48.402;11.718;2023-03-20T03:45:39;6.40;;;3.30;;
25391;SDS011;13329;48.402;11.718;2023-03-20T03:48:10;7.25;;;3.67;;
25391;SDS011;13329;48.402;11.718;2023-03-20T03:50:38;5.97;;;3.20;;
25391;SDS011;13329;48.402;11.718;2023-03-20T03:53:09;5.07;;;3.33;;
25391;SDS011;13329;48.402;11.718;2023-03-20T03:55:36;5.47;;;3.10;;
25391;SDS011;13329;48.402;11.718;2023-03-20T03:58:03;4.80;;;3.08;;
25391;SDS011;13329;48.402;11.718;2023-03-20T04:00:30;6.45;;;3.10;;
25391;SDS011;13329;48.402;11.718;2023-03-20T04:02:57;6.35;;;3.45;;
25391;SDS011;13329;48.402;11.718;2023-03-20T04:05:23;6.30;;;3.50;;
25391;SDS011;13329;48.402;11.718;2023-03-20T04:07:52;5.68;;;3.28;;
25391;SDS011;13329;48.402;11.718;2023-03-20T04:10:17;4.03;;;2.70;;
25391;SDS011;13329;48.402;11.718;2023-03-20T04:12:43;5.80;;;3.03;;
25391;SDS011;13329;48.402;11.718;2023-03-20T04:15:08;6.95;;;3.20;;
25391;SDS011;13329;48.402;11.718;2023-03-20T04:17:34;4.47;;;3.17;;
25391;SDS011;13329;48.402;11.718;2023-03-20T04:19:59;8.60;;;2.70;;
25391;SDS011;13329;48.402;11.718;2023-03-20T04:22:24;4.28;;;2.67;;
25391;SDS011;13329;48.402;11.718;2023-03-20T04:24:50;5.32;;;3.08;;
25391;SDS011;13329;48.402;11.718;2023-03-20T04:27:15;7.60;;;3.90;;
25391;SDS011;13329;48.402;11.718;2023-03-20T04:29:40;6.07;;;3.25;;
25391;SDS011;13329;48.402;11.718;2023-03-20T04:32:05;5.30;;;3.00;;
25391;SDS011;13329;48.402;11.718;2023-03-20T04:34:31;8.37;;;3.80;;
25391;SDS011;13329;48.402;11.718;2023-03-20T04:36:56;15.80;;;4.43;;
25391;SDS011;13329;48.402;11.718;2023-03-20T04:39:22;6.00;;;3.33;;
25391;SDS011;13329;48.402;11.718;2023-03-20T04:41:47;6.10;;;3.55;;
25391;SDS011;13329;48.402;11.718;2023-03-20T04:44:12;7.38;;;3.13;;
25391;SDS011;13329;48.402;11.718;2023-03-20T04:46:37;7.55;;;3.42;;
25391;SDS011;13329;48.402;11.718;2023-03-20T04:49:02;6.18;;;3.40;;
25391;SDS011;13329;48.402;11.718;2023-03-20T04:51:28;5.53;;;3.57;;
25391;SDS011;13329;48.402;11.718;2023-03-20T04:53:53;5.77;;;3.17;;
25391;SDS011;13329;48.402;11.718;2023-03-20T04:56:18;5.73;;;3.50;;
25391;SDS011;13329;48.402;11.718;2023-03-20T04:58:43;7.50;;;3.23;;
25391;SDS011;13329;48.402;11.718;2023-03-20T05:01:08;7.35;;;3.65;;
25391;SDS011;13329;48.402;11.718;2023-03-20T05:03:33;6.10;;;3.70;;
25391;SDS011;13329;48.402;11.718;2023-03-20T05:05:59;5.93;;;3.40;;
25391;SDS011;13329;48.402;11.718;2023-03-20T05:08:24;5.18;;;3.10;;
25391;SDS011;13329;48.402;11.718;2023-03-20T05:10:49;4.97;;;3.10;;
25391;SDS011;13329;48.402;11.718;2023-03-20T05:13:15;4.70;;;2.80;;
25391;SDS011;13329;48.402;11.718;2023-03-20T05:15:40;5.23;;;3.50;;
25391;SDS011;13329;48.402;11.718;2023-03-20T05:18:06;8.35;;;3.85;;
25391;SDS011;13329;48.402;11.718;2023-03-20T05:20:32;6.00;;;2.95;;
25391;SDS011;13329;48.402;11.718;2023-03-20T05:22:57;7.77;;;3.40;;
25391;SDS011;13329;48.402;11.718;2023-03-20T05:25:22;5.60;;;3.40;;
25391;SDS011;13329;48.402;11.718;2023-03-20T05:27:47;5.37;;;3.37;;
25391;SDS011;13329;48.402;11.718;2023-03-20T05:30:13;5.03;;;3.23;;
25391;SDS011;13329;48.402;11.718;2023-03-20T05:32:38;8.63;;;3.35;;
25391;SDS011;13329;48.402;11.718;2023-03-20T05:35:04;6.28;;;3.40;;
25391;SDS011;13329;48.402;11.718;2023-03-20T05:37:31;5.78;;;3.42;;
25391;SDS011;13329;48.402;11.718;2023-03-20T05:39:56;6.07;;;3.50;;
25391;SDS011;13329;48.402;11.718;2023-03-20T05:42:21;5.65;;;3.33;;
25391;SDS011;13329;48.402;11.718;2023-03-20T05:44:46;7.47;;;4.10;;
25391;SDS011;13329;48.402;11.718;2023-03-20T05:47:11;5.65;;;3.25;;
25391;SDS011;13329;48.402;11.718;2023-03-20T05:49:36;5.53;;;3.45;;
25391;SDS011;13329;48.402;11.718;2023-03-20T05:52:01;6.63;;;3.40;;
25391;SDS011;13329;48.402;11.718;2023-03-20T05:54:26;7.13;;;4.20;;
25391;SDS011;13329;48.402;11.718;2023-03-20T05:56:52;8.90;;;3.43;;
25391;SDS011;13329;48.402;11.718;2023-03-20T05:59:17;6.43;;;3.60;;
25391;SDS011;13329;48.402;11.718;2023-03-20T06:01:42;6.20;;;3.70;;
25391;SDS011;13329;48.402;11.718;2023-03-20T06:04:07;8.65;;;3.72;;
25391;SDS011;13329;48.402;11.718;2023-03-20T06:06:32;5.13;;;3.67;;
25391;SDS011;13329;48.402;11.718;2023-03-20T06:09:01;7.15;;;3.70;;
25391;SDS011;13329;48.402;11.718;2023-03-20T06:11:26;10.23;;;3.40;;
25391;SDS011;13329;48.402;11.718;2023-03-20T06:13:52;6.38;;;3.45;;
25391;SDS011;13329;48.402;11.718;2023-03-20T06:16:19;7.18;;;4.13;;
25391;SDS011;13329;48.402;11.718;2023-03-20T06:18:44;5.00;;;3.40;;
25391;SDS011;13329;48.402;11.718;2023-03-20T06:21:10;5.80;;;3.17;;
25391;SDS011;13329;48.402;11.718;2023-03-20T06:23:36;6.45;;;3.33;;
25391;SDS011;13329;48.402;11.718;2023-03-20T06:26:02;5.73;;;3.77;;
25391;SDS011;13329;48.402;11.718;2023-03-20T06:28:27;6.37;;;4.00;;
25391;SDS011;13329;48.402;11.718;2023-03-20T06:30:52;6.87;;;3.40;;
25391;SDS011;13329;48.402;11.718;2023-03-20T06:33:17;5.95;;;3.33;;
25391;SDS011;13329;48.402;11.718;2023-03-20T06:35:44;5.43;;;3.10;;
25391;SDS011;13329;48.402;11.718;2023-03-20T06:38:09;6.30;;;4.07;;
25391;SDS011;13329;48.402;11.718;2023-03-20T06:40:34;6.18;;;3.50;;
25391;SDS011;13329;48.402;11.718;2023-03-20T06:43:00;7.75;;;3.53;;
25391;SDS011;13329;48.402;11.718;2023-03-20T06:45:25;5.72;;;3.75;;
25391;SDS011;13329;48.402;11.718;2023-03-20T06:47:50;8.07;;;3.92;;
25391;SDS011;13329;48.402;11.718;2023-03-20T06:50:16;6.63;;;3.13;;
25391;SDS011;13329;48.402;11.718;2023-03-20T06:52:41;5.03;;;3.60;;
25391;SDS011;13329;48.402;11.718;2023-03-20T06:55:06;6.13;;;3.47;;
25391;SDS011;13329;48.402;11.718;2023-03-20T06:57:32;6.55;;;3.72;;
25391;SDS011;13329;48.402;11.718;2023-03-20T06:59:57;5.25;;;2.90;;
25391;SDS011;13329;48.402;11.718;2023-03-20T07:02:23;7.32;;;3.55;;
25391;SDS011;13329;48.402;11.718;2023-03-20T07:04:48;5.65;;;3.40;;
25391;SDS011;13329;48.402;11.718;2023-03-20T07:07:13;5.93;;;3.20;;
25391;SDS011;13329;48.402;11.718;2023-03-20T07:09:38;7.60;;;3.72;;
25391;SDS011;13329;48.402;11.718;2023-03-20T07:12:03;6.93;;;3.67;;
25391;SDS011;13329;48.402;11.718;2023-03-20T07:14:29;6.57;;;3.40;;
25391;SDS011;13329;48.402;11.718;2023-03-20T07:16:54;5.75;;;3.47;;
25391;SDS011;13329;48.402;11.718;2023-03-20T07:19:20;7.30;;;3.67;;
25391;SDS011;13329;48.402;11.718;2023-03-20T07:21:45;8.25;;;4.00;;
25391;SDS011;13329;48.402;11.718;2023-03-20T07:24:10;5.93;;;3.15;;
25391;SDS011;13329;48.402;11.718;2023-03-20T07:26:36;6.83;;;3.67;;
25391;SDS011;13329;48.402;11.718;2023-03-20T07:29:01;7.70;;;3.78;;
25391;SDS011;13329;48.402;11.718;2023-03-20T07:31:27;5.53;;;3.45;;
25391;SDS011;13329;48.402;11.718;2023-03-20T07:33:56;7.60;;;3.33;;
25391;SDS011;13329;48.402;11.718;2023-03-20T07:36:21;5.78;;;3.42;;
25391;SDS011;13329;48.402;11.718;2023-03-20T07:38:46;7.13;;;4.03;;
25391;SDS011;13329;48.402;11.718;2023-03-20T07:41:12;3.03;;;2.30;;
25391;SDS011;13329;48.402;11.718;2023-03-20T07:43:37;8.67;;;3.70;;
25391;SDS011;13329;48.402;11.718;2023-03-20T07:46:02;7.13;;;2.88;;
25391;SDS011;13329;48.402;11.718;2023-03-20T07:48:28;6.18;;;3.45;;
25391;SDS011;13329;48.402;11.718;2023-03-20T07:50:53;7.13;;;4.47;;
25391;SDS011;13329;48.402;11.718;2023-03-20T07:53:18;6.90;;;3.57;;
25391;SDS011;13329;48.402;11.718;2023-03-20T07:55:43;7.13;;;3.80;;
25391;SDS011;13329;48.402;11.718;2023-03-20T07:58:09;6.60;;;3.75;;
25391;SDS011;13329;48.402;11.718;2023-03-20T08:00:34;8.43;;;4.40;;
25391;SDS011;13329;48.402;11.718;2023-03-20T08:03:00;10.30;;;5.05;;
25391;SDS011;13329;48.402;11.718;2023-03-20T08:05:25;7.77;;;4.67;;
25391;SDS011;13329;48.402;11.718;2023-03-20T08:07:51;10.02;;;4.70;;
25391;SDS011;13329;48.402;11.718;2023-03-20T08:10:16;8.50;;;4.17;;
25391;SDS011;13329;48.402;11.718;2023-03-20T08:12:41;7.80;;;4.53;;
25391;SDS011;13329;48.402;11.718;2023-03-20T08:15:07;7.53;;;4.13;;
25391;SDS011;13329;48.402;11.718;2023-03-20T08:17:32;8.05;;;4.65;;
25391;SDS011;13329;48.402;11.718;2023-03-20T08:19:57;9.10;;;4.97;;
25391;SDS011;13329;48.402;11.718;2023-03-20T08:22:22;8.57;;;3.90;;
25391;SDS011;13329;48.402;11.718;2023-03-20T08:24:47;8.25;;;4.35;;
25391;SDS011;13329;48.402;11.718;2023-03-20T08:27:13;7.40;;;4.07;;
25391;SDS011;13329;48.402;11.718;2023-03-20T08:29:38;6.85;;;3.97;;
25391;SDS011;13329;48.402;11.718;2023-03-20T08:32:03;5.17;;;2.73;;
25391;SDS011;13329;48.402;11.718;2023-03-20T08:34:29;9.60;;;3.97;;
25391;SDS011;13329;48.402;11.718;2023-03-20T08:36:55;5.72;;;3.63;;
25391;SDS011;13329;48.402;11.718;2023-03-20T08:39:20;5.93;;;3.10;;
25391;SDS011;13329;48.402;11.718;2023-03-20T08:41:45;7.35;;;4.03;;
25391;SDS011;13329;48.402;11.718;2023-03-20T08:44:11;4.72;;;3.45;;
25391;SDS011;13329;48.402;11.718;2023-03-20T08:46:36;5.65;;;3.58;;
25391;SDS011;13329;48.402;11.718;2023-03-20T08:49:02;4.93;;;3.30;;
25391;SDS011;13329;48.402;11.718;2023-03-20T08:51:29;4.53;;;3.10;;
25391;SDS011;13329;48.402;11.718;2023-03-20T08:53:54;4.90;;;3.17;;
25391;SDS011;13329;48.402;11.718;2023-03-20T08:56:19;5.82;;;3.40;;
25391;SDS011;13329;48.402;11.718;2023-03-20T08:58:44;6.10;;;3.23;;
25391;SDS011;13329;48.402;11.718;2023-03-20T09:01:10;6.47;;;3.93;;
25391;SDS011;13329;48.402;11.718;2023-03-20T09:03:35;5.93;;;3.30;;
25391;SDS011;13329;48.402;11.718;2023-03-20T09:06:03;4.80;;;2.97;;
25391;SDS011;13329;48.402;11.718;2023-03-20T09:08:28;5.55;;;3.45;;
25391;SDS011;13329;48.402;11.718;2023-03-20T09:10:53;7.93;;;3.23;;
25391;SDS011;13329;48.402;11.718;2023-03-20T09:13:18;6.25;;;2.92;;
25391;SDS011;13329;48.402;11.718;2023-03-20T09:15:44;6.43;;;3.43;;
25391;SDS011;13329;48.402;11.718;2023-03-20T09:18:09;4.27;;;2.87;;
25391;SDS011;13329;48.402;11.718;2023-03-20T09:20:34;4.60;;;2.70;;
25391;SDS011;13329;48.402;11.718;2023-03-20T09:22:59;5.77;;;3.10;;
25391;SDS011;13329;48.402;11.718;2023-03-20T09:25:25;4.32;;;2.70;;
25391;SDS011;13329;48.402;11.718;2023-03-20T09:27:51;5.03;;;2.88;;
25391;SDS011;13329;48.402;11.718;2023-03-20T09:30:19;5.45;;;3.25;;
25391;SDS011;13329;48.402;11.718;2023-03-20T09:32:44;8.30;;;3.00;;
25391;SDS011;13329;48.402;11.718;2023-03-20T09:35:09;4.87;;;3.00;;
25391;SDS011;13329;48.402;11.718;2023-03-20T09:37:34;6.38;;;3.38;;
25391;SDS011;13329;48.402;11.718;2023-03-20T09:40:00;6.70;;;3.30;;
25391;SDS011;13329;48.402;11.718;2023-03-20T09:45:14;4.03;;;2.45;;
25391;SDS011;13329;48.402;11.718;2023-03-20T09:47:44;4.65;;;2.72;;
25391;SDS011;13329;48.402;11.718;2023-03-20T09:50:27;6.32;;;3.15;;
25391;SDS011;13329;48.402;11.718;2023-03-20T09:55:29;4.35;;;2.83;;
25391;SDS011;13329;48.402;11.718;2023-03-20T09:57:56;7.88;;;3.60;;
25391;SDS011;13329;48.402;11.718;2023-03-20T10:00:26;4.68;;;2.60;;
25391;SDS011;13329;48.402;11.718;2023-03-20T10:02:54;10.23;;;3.00;;
25391;SDS011;13329;48.402;11.718;2023-03-20T10:05:26;5.57;;;3.17;;
25391;SDS011;13329;48.402;11.718;2023-03-20T10:07:55;4.45;;;2.42;;
25391;SDS011;13329;48.402;11.718;2023-03-20T10:10:23;4.00;;;2.58;;
25391;SDS011;13329;48.402;11.718;2023-03-20T10:12:52;2.60;;;1.85;;
25391;SDS011;13329;48.402;11.718;2023-03-20T10:15:38;5.85;;;2.42;;
25391;SDS011;13329;48.402;11.718;2023-03-20T10:18:09;5.00;;;2.90;;
25391;SDS011;13329;48.402;11.718;2023-03-20T10:20:39;4.97;;;3.10;;
25391;SDS011;13329;48.402;11.718;2023-03-20T10:23:06;4.47;;;2.33;;
25391;SDS011;13329;48.402;11.718;2023-03-20T10:25:39;5.35;;;3.20;;
25391;SDS011;13329;48.402;11.718;2023-03-20T10:35:38;5.63;;;2.20;;
25391;SDS011;13329;48.402;11.718;2023-03-20T10:40:36;5.03;;;2.22;;
25391;SDS011;13329;48.402;11.718;2023-03-20T10:43:03;2.40;;;1.48;;
25391;SDS011;13329;48.402;11.718;2023-03-20T10:45:33;4.05;;;2.28;;
25391;SDS011;13329;48.402;11.718;2023-03-20T10:48:01;6.35;;;2.38;;
25391;SDS011;13329;48.402;11.718;2023-03-20T10:50:32;3.38;;;2.35;;
25391;SDS011;13329;48.402;11.718;2023-03-20T10:52:57;3.13;;;1.55;;
25391;SDS011;13329;48.402;11.718;2023-03-20T10:55:25;2.95;;;1.98;;
25391;SDS011;13329;48.402;11.718;2023-03-20T10:58:10;5.90;;;1.67;;
25391;SDS011;13329;48.402;11.718;2023-03-20T11:00:38;2.78;;;1.50;;
25391;SDS011;13329;48.402;11.718;2023-03-20T11:03:04;2.20;;;1.70;;
25391;SDS011;13329;48.402;11.718;2023-03-20T11:05:31;2.58;;;1.58;;
25391;SDS011;13329;48.402;11.718;2023-03-20T11:08:00;3.05;;;1.80;;
25391;SDS011;13329;48.402;11.718;2023-03-20T11:10:26;2.55;;;1.30;;
25391;SDS011;13329;48.402;11.718;2023-03-20T11:12:51;2.22;;;1.42;;
25391;SDS011;13329;48.402;11.718;2023-03-20T11:17:52;2.17;;;1.33;;
25391;SDS011;13329;48.402;11.718;2023-03-20T11:20:17;2.50;;;1.60;;
25391;SDS011;13329;48.402;11.718;2023-03-20T11:22:42;1.73;;;1.37;;
25391;SDS011;13329;48.402;11.718;2023-03-20T11:25:19;1.37;;;1.17;;
25391;SDS011;13329;48.402;11.718;2023-03-20T11:27:46;2.70;;;1.30;;
25391;SDS011;13329;48.402;11.718;2023-03-20T11:30:11;2.10;;;0.85;;
25391;SDS011;13329;48.402;11.718;2023-03-20T11:32:44;1.83;;;1.23;;
25391;SDS011;13329;48.402;11.718;2023-03-20T11:35:15;1.50;;;1.25;;
25391;SDS011;13329;48.402;11.718;2023-03-20T11:37:43;2.28;;;1.58;;
25391;SDS011;13329;48.402;11.718;2023-03-20T11:42:50;1.42;;;1.05;;
25391;SDS011;13329;48.402;11.718;2023-03-20T11:45:16;1.65;;;1.10;;
25391;SDS011;13329;48.402;11.718;2023-03-20T11:47:42;2.15;;;1.20;;
25391;SDS011;13329;48.402;11.718;2023-03-20T11:52:51;2.65;;;1.48;;
25391;SDS011;13329;48.402;11.718;2023-03-20T11:55:26;2.40;;;1.30;;
25391;SDS011;13329;48.402;11.718;2023-03-20T11:57:56;3.05;;;1.45;;
25391;SDS011;13329;48.402;11.718;2023-03-20T12:00:23;4.18;;;1.50;;
25391;SDS011;13329;48.402;11.718;2023-03-20T12:02:49;2.67;;;1.40;;
25391;SDS011;13329;48.402;11.718;2023-03-20T12:05:18;1.75;;;1.55;;
25391;SDS011;13329;48.402;11.718;2023-03-20T12:07:45;2.60;;;1.30;;
25391;SDS011;13329;48.402;11.718;2023-03-20T12:10:13;1.38;;;1.10;;
25391;SDS011;13329;48.402;11.718;2023-03-20T12:12:52;3.03;;;1.27;;
25391;SDS011;13329;48.402;11.718;2023-03-20T12:15:25;1.17;;;0.77;;
25391;SDS011;13329;48.402;11.718;2023-03-20T12:18:04;2.55;;;1.33;;
25391;SDS011;13329;48.402;11.718;2023-03-20T12:20:37;1.33;;;1.20;;
25391;SDS011;13329;48.402;11.718;2023-03-20T12:25:42;2.08;;;1.10;;
25391;SDS011;13329;48.402;11.718;2023-03-20T12:33:15;1.65;;;1.00;;
25391;SDS011;13329;48.402;11.718;2023-03-20T12:35:44;1.30;;;1.07;;
25391;SDS011;13329;48.402;11.718;2023-03-20T12:38:20;1.73;;;1.10;;
25391;SDS011;13329;48.402;11.718;2023-03-20T12:40:47;1.45;;;1.13;;
25391;SDS011;13329;48.402;11.718;2023-03-20T12:43:17;2.25;;;1.25;;
25391;SDS011;13329;48.402;11.718;2023-03-20T12:51:18;2.00;;;0.95;;
25391;SDS011;13329;48.402;11.718;2023-03-20T12:56:46;0.98;;;0.68;;
25391;SDS011;13329;48.402;11.718;2023-03-20T13:01:55;0.52;;;0.40;;
25391;SDS011;13329;48.402;11.718;2023-03-20T13:07:05;1.63;;;0.80;;
25391;SDS011;13329;48.402;11.718;2023-03-20T13:09:34;1.17;;;0.75;;
25391;SDS011;13329;48.402;11.718;2023-03-20T13:22:14;1.40;;;0.70;;
25391;SDS011;13329;48.402;11.718;2023-03-20T13:27:43;1.85;;;1.10;;
25391;SDS011;13329;48.402;11.718;2023-03-20T13:30:25;1.13;;;0.77;;
25391;SDS011;13329;48.402;11.718;2023-03-20T13:37:50;1.67;;;0.90;;
25391;SDS011;13329;48.402;11.718;2023-03-20T13:47:51;2.50;;;0.97;;
25391;SDS011;13329;48.402;11.718;2023-03-20T13:50:36;1.73;;;0.70;;
25391;SDS011;13329;48.402;11.718;2023-03-20T13:53:09;1.77;;;0.80;;
25391;SDS011;13329;48.402;11.718;2023-03-20T13:55:58;1.67;;;0.80;;
25391;SDS011;13329;48.402;11.718;2023-03-20T14:03:34;1.83;;;0.63;;
25391;SDS011;13329;48.402;11.718;2023-03-20T14:06:00;1.05;;;0.68;;
25391;SDS011;13329;48.402;11.718;2023-03-20T14:08:39;1.17;;;0.70;;
25391;SDS011;13329;48.402;11.718;2023-03-20T14:11:11;1.05;;;0.85;;
25391;SDS011;13329;48.402;11.718;2023-03-20T14:13:38;1.38;;;0.70;;
25391;SDS011;13329;48.402;11.718;2023-03-20T14:16:06;0.93;;;0.80;;
25391;SDS011;13329;48.402;11.718;2023-03-20T14:18:32;1.67;;;1.00;;
25391;SDS011;13329;48.402;11.718;2023-03-20T14:20:58;0.63;;;0.60;;
25391;SDS011;13329;48.402;11.718;2023-03-20T14:25:56;1.17;;;0.80;;
25391;SDS011;13329;48.402;11.718;2023-03-20T14:28:23;1.10;;;0.77;;
25391;SDS011;13329;48.402;11.718;2023-03-20T14:30:49;1.08;;;0.75;;
25391;SDS011;13329;48.402;11.718;2023-03-20T14:38:13;1.42;;;0.70;;
25391;SDS011;13329;48.402;11.718;2023-03-20T14:40:48;1.25;;;0.80;;
25391;SDS011;13329;48.402;11.718;2023-03-20T14:45:43;0.90;;;0.60;;
25391;SDS011;13329;48.402;11.718;2023-03-20T14:48:31;1.08;;;0.63;;
25391;SDS011;13329;48.402;11.718;2023-03-20T14:51:04;2.05;;;0.63;;
25391;SDS011;13329;48.402;11.718;2023-03-20T14:53:30;0.73;;;0.40;;
25391;SDS011;13329;48.402;11.718;2023-03-20T15:01:01;1.42;;;0.70;;
25391;SDS011;13329;48.402;11.718;2023-03-20T15:03:27;0.95;;;0.50;;
25391;SDS011;13329;48.402;11.718;2023-03-20T15:05:58;1.00;;;0.68;;
25391;SDS011;13329;48.402;11.718;2023-03-20T15:08:24;0.57;;;0.43;;
25391;SDS011;13329;48.402;11.718;2023-03-20T15:10:52;0.47;;;0.35;;
25391;SDS011;13329;48.402;11.718;2023-03-20T15:13:19;1.80;;;0.77;;
25391;SDS011;13329;48.402;11.718;2023-03-20T15:15:55;0.45;;;0.40;;
25391;SDS011;13329;48.402;11.718;2023-03-20T15:18:21;0.60;;;0.47;;
25391;SDS011;13329;48.402;11.718;2023-03-20T15:20:47;0.52;;;0.40;;
25391;SDS011;13329;48.402;11.718;2023-03-20T15:23:12;0.38;;;0.30;;
25391;SDS011;13329;48.402;11.718;2023-03-20T15:25:38;0.75;;;0.40;;
25391;SDS011;13329;48.402;11.718;2023-03-20T15:28:05;0.57;;;0.30;;
25391;SDS011;13329;48.402;11.718;2023-03-20T15:30:31;0.60;;;0.20;;
25391;SDS011;13329;48.402;11.718;2023-03-20T15:32:57;0.77;;;0.52;;
25391;SDS011;13329;48.402;11.718;2023-03-20T15:35:22;0.60;;;0.38;;
25391;SDS011;13329;48.402;11.718;2023-03-20T15:37:50;0.85;;;0.40;;
25391;SDS011;13329;48.402;11.718;2023-03-20T15:40:24;0.40;;;0.40;;
25391;SDS011;13329;48.402;11.718;2023-03-20T15:42:55;0.80;;;0.55;;
25391;SDS011;13329;48.402;11.718;2023-03-20T15:45:30;0.77;;;0.47;;
25391;SDS011;13329;48.402;11.718;2023-03-20T15:48:06;0.45;;;0.30;;
25391;SDS011;13329;48.402;11.718;2023-03-20T15:50:32;0.40;;;0.35;;
25391;SDS011;13329;48.402;11.718;2023-03-20T15:52:58;0.60;;;0.40;;
25391;SDS011;13329;48.402;11.718;2023-03-20T15:55:24;0.93;;;0.43;;
25391;SDS011;13329;48.402;11.718;2023-03-20T15:57:51;0.20;;;0.20;;
25391;SDS011;13329;48.402;11.718;2023-03-20T16:00:24;0.68;;;0.55;;
25391;SDS011;13329;48.402;11.718;2023-03-20T16:02:50;1.10;;;0.47;;
25391;SDS011;13329;48.402;11.718;2023-03-20T16:05:15;1.40;;;0.20;;
25391;SDS011;13329;48.402;11.718;2023-03-20T16:07:41;0.40;;;0.40;;
25391;SDS011;13329;48.402;11.718;2023-03-20T16:10:20;0.60;;;0.40;;
25391;SDS011;13329;48.402;11.718;2023-03-20T16:12:50;1.52;;;0.68;;
25391;SDS011;13329;48.402;11.718;2023-03-20T16:15:16;1.10;;;0.50;;
25391;SDS011;13329;48.402;11.718;2023-03-20T16:17:42;0.95;;;0.68;;
25391;SDS011;13329;48.402;11.718;2023-03-20T16:20:14;0.30;;;0.30;;
25391;SDS011;13329;48.402;11.718;2023-03-20T16:22:42;2.90;;;0.70;;
25391;SDS011;13329;48.402;11.718;2023-03-20T16:25:08;0.70;;;0.45;;
25391;SDS011;13329;48.402;11.718;2023-03-20T16:27:34;0.65;;;0.60;;
25391;SDS011;13329;48.402;11.718;2023-03-20T16:30:04;0.38;;;0.38;;
25391;SDS011;13329;48.402;11.718;2023-03-20T16:32:35;0.95;;;0.70;;
25391;SDS011;13329;48.402;11.718;2023-03-20T16:35:02;0.55;;;0.55;;
25391;SDS011;13329;48.402;11.718;2023-03-20T16:37:29;0.50;;;0.50;;